Terminal Aerodrome Forecast
Issued by NWS

Home | Current Version | Previous Version | Text Only | Print | Product List | Glossary On
Versions: 1 2 3 4 5 6 7 8 9 10 11 12 13 14
672
FTUS43 KMQT 080526
TAFSAW
TAF
KSAW 080526Z 0806/0906 20006KT 5SM -SN BR OVC035
      TEMPO 0806/0809 6SM BR BKN015
     FM080900 VRB03KT 3SM -SN BR OVC015
     FM081200 32005KT 2SM -SHSN OVC007
     FM081800 33011G16KT 3SM -SHSN OVC010=

USA.gov is the U.S. government's official web portal to all federal, state and local government web resources and services.